sensor_id;sensor_type;location;lat;lon;timestamp;P1;durP1;ratioP1;P2;durP2;ratioP2
20122;SDS011;10222;50.848;4.336;2023-01-20T00:02:27;16.83;;;6.60;;
20122;SDS011;10222;50.848;4.336;2023-01-20T00:04:53;21.50;;;8.17;;
20122;SDS011;10222;50.848;4.336;2023-01-20T00:07:20;14.90;;;7.23;;
20122;SDS011;10222;50.848;4.336;2023-01-20T00:09:46;16.63;;;6.40;;
20122;SDS011;10222;50.848;4.336;2023-01-20T00:14:41;17.83;;;7.03;;
20122;SDS011;10222;50.848;4.336;2023-01-20T00:17:08;14.73;;;7.50;;
20122;SDS011;10222;50.848;4.336;2023-01-20T00:19:35;19.87;;;7.37;;
20122;SDS011;10222;50.848;4.336;2023-01-20T00:22:03;14.97;;;6.17;;
20122;SDS011;10222;50.848;4.336;2023-01-20T00:24:29;20.40;;;7.90;;
20122;SDS011;10222;50.848;4.336;2023-01-20T00:26:56;14.70;;;7.70;;
20122;SDS011;10222;50.848;4.336;2023-01-20T00:31:54;19.17;;;7.90;;
20122;SDS011;10222;50.848;4.336;2023-01-20T00:34:20;16.37;;;6.70;;
20122;SDS011;10222;50.848;4.336;2023-01-20T00:36:48;14.43;;;6.70;;
20122;SDS011;10222;50.848;4.336;2023-01-20T00:41:43;15.87;;;6.60;;
20122;SDS011;10222;50.848;4.336;2023-01-20T00:44:09;15.47;;;6.43;;
20122;SDS011;10222;50.848;4.336;2023-01-20T00:49:04;21.93;;;7.87;;
20122;SDS011;10222;50.848;4.336;2023-01-20T00:51:31;19.83;;;7.77;;
20122;SDS011;10222;50.848;4.336;2023-01-20T00:54:00;17.37;;;5.73;;
20122;SDS011;10222;50.848;4.336;2023-01-20T00:56:27;18.23;;;6.60;;
20122;SDS011;10222;50.848;4.336;2023-01-20T00:58:54;15.23;;;6.47;;
20122;SDS011;10222;50.848;4.336;2023-01-20T01:01:26;14.37;;;6.03;;
20122;SDS011;10222;50.848;4.336;2023-01-20T01:03:53;15.13;;;6.17;;
20122;SDS011;10222;50.848;4.336;2023-01-20T01:08:48;20.00;;;6.33;;
20122;SDS011;10222;50.848;4.336;2023-01-20T01:11:17;20.20;;;7.37;;
20122;SDS011;10222;50.848;4.336;2023-01-20T01:13:43;18.83;;;7.00;;
20122;SDS011;10222;50.848;4.336;2023-01-20T01:16:11;18.50;;;6.80;;
20122;SDS011;10222;50.848;4.336;2023-01-20T01:18:38;19.37;;;9.10;;
20122;SDS011;10222;50.848;4.336;2023-01-20T01:21:05;14.23;;;5.73;;
20122;SDS011;10222;50.848;4.336;2023-01-20T01:23:32;18.80;;;7.43;;
20122;SDS011;10222;50.848;4.336;2023-01-20T01:25:58;16.63;;;6.40;;
20122;SDS011;10222;50.848;4.336;2023-01-20T01:28:24;17.63;;;6.70;;
20122;SDS011;10222;50.848;4.336;2023-01-20T01:30:50;17.17;;;7.27;;
20122;SDS011;10222;50.848;4.336;2023-01-20T01:33:16;15.00;;;6.03;;
20122;SDS011;10222;50.848;4.336;2023-01-20T01:35:43;16.23;;;6.57;;
20122;SDS011;10222;50.848;4.336;2023-01-20T01:38:19;19.93;;;8.37;;
20122;SDS011;10222;50.848;4.336;2023-01-20T01:40:50;17.87;;;7.50;;
20122;SDS011;10222;50.848;4.336;2023-01-20T01:43:37;17.33;;;7.17;;
20122;SDS011;10222;50.848;4.336;2023-01-20T01:46:03;13.33;;;5.83;;
20122;SDS011;10222;50.848;4.336;2023-01-20T01:48:39;18.43;;;7.23;;
20122;SDS011;10222;50.848;4.336;2023-01-20T01:51:12;17.20;;;6.70;;
20122;SDS011;10222;50.848;4.336;2023-01-20T01:53:41;13.83;;;6.03;;
20122;SDS011;10222;50.848;4.336;2023-01-20T01:56:09;14.97;;;6.83;;
20122;SDS011;10222;50.848;4.336;2023-01-20T01:58:43;24.20;;;7.53;;
20122;SDS011;10222;50.848;4.336;2023-01-20T02:01:11;18.00;;;7.10;;
20122;SDS011;10222;50.848;4.336;2023-01-20T02:03:48;19.37;;;7.20;;
20122;SDS011;10222;50.848;4.336;2023-01-20T02:06:23;21.57;;;6.93;;
20122;SDS011;10222;50.848;4.336;2023-01-20T02:08:50;16.87;;;6.87;;
20122;SDS011;10222;50.848;4.336;2023-01-20T02:11:17;24.43;;;9.03;;
20122;SDS011;10222;50.848;4.336;2023-01-20T02:13:43;14.87;;;7.13;;
20122;SDS011;10222;50.848;4.336;2023-01-20T02:18:55;16.83;;;7.40;;
20122;SDS011;10222;50.848;4.336;2023-01-20T02:34:27;17.13;;;6.77;;
20122;SDS011;10222;50.848;4.336;2023-01-20T02:37:05;20.70;;;7.70;;
20122;SDS011;10222;50.848;4.336;2023-01-20T02:42:10;20.70;;;7.20;;
20122;SDS011;10222;50.848;4.336;2023-01-20T02:44:41;20.83;;;7.33;;
20122;SDS011;10222;50.848;4.336;2023-01-20T02:47:23;15.83;;;5.83;;
20122;SDS011;10222;50.848;4.336;2023-01-20T02:50:00;18.83;;;6.80;;
20122;SDS011;10222;50.848;4.336;2023-01-20T02:52:31;18.47;;;6.60;;
20122;SDS011;10222;50.848;4.336;2023-01-20T02:55:02;14.67;;;6.37;;
20122;SDS011;10222;50.848;4.336;2023-01-20T02:57:31;15.20;;;6.03;;
20122;SDS011;10222;50.848;4.336;2023-01-20T03:00:00;19.27;;;7.67;;
20122;SDS011;10222;50.848;4.336;2023-01-20T03:02:28;14.00;;;6.67;;
20122;SDS011;10222;50.848;4.336;2023-01-20T03:04:58;21.87;;;6.17;;
20122;SDS011;10222;50.848;4.336;2023-01-20T03:07:28;15.80;;;7.33;;
20122;SDS011;10222;50.848;4.336;2023-01-20T03:14:56;16.00;;;7.00;;
20122;SDS011;10222;50.848;4.336;2023-01-20T03:17:22;17.17;;;6.73;;
20122;SDS011;10222;50.848;4.336;2023-01-20T03:19:48;19.60;;;7.33;;
20122;SDS011;10222;50.848;4.336;2023-01-20T03:22:16;13.60;;;6.63;;
20122;SDS011;10222;50.848;4.336;2023-01-20T03:24:45;21.17;;;7.40;;
20122;SDS011;10222;50.848;4.336;2023-01-20T03:27:12;14.40;;;6.33;;
20122;SDS011;10222;50.848;4.336;2023-01-20T03:29:38;15.17;;;5.80;;
20122;SDS011;10222;50.848;4.336;2023-01-20T03:32:04;14.67;;;6.87;;
20122;SDS011;10222;50.848;4.336;2023-01-20T03:34:33;13.47;;;6.13;;
20122;SDS011;10222;50.848;4.336;2023-01-20T03:52:16;15.20;;;6.93;;
20122;SDS011;10222;50.848;4.336;2023-01-20T03:54:46;14.40;;;6.47;;
20122;SDS011;10222;50.848;4.336;2023-01-20T03:57:22;12.53;;;6.90;;
20122;SDS011;10222;50.848;4.336;2023-01-20T03:59:50;18.03;;;8.20;;
20122;SDS011;10222;50.848;4.336;2023-01-20T04:02:17;21.67;;;7.90;;
20122;SDS011;10222;50.848;4.336;2023-01-20T04:04:45;16.00;;;7.97;;
20122;SDS011;10222;50.848;4.336;2023-01-20T04:07:21;14.73;;;6.33;;
20122;SDS011;10222;50.848;4.336;2023-01-20T04:09:51;20.20;;;7.10;;
20122;SDS011;10222;50.848;4.336;2023-01-20T04:12:18;17.70;;;5.87;;
20122;SDS011;10222;50.848;4.336;2023-01-20T04:14:44;17.50;;;7.53;;
20122;SDS011;10222;50.848;4.336;2023-01-20T04:17:11;16.33;;;7.10;;
20122;SDS011;10222;50.848;4.336;2023-01-20T04:19:37;17.73;;;7.33;;
20122;SDS011;10222;50.848;4.336;2023-01-20T04:22:08;18.30;;;6.40;;
20122;SDS011;10222;50.848;4.336;2023-01-20T04:27:18;17.83;;;7.77;;
20122;SDS011;10222;50.848;4.336;2023-01-20T04:29:44;20.87;;;7.53;;
20122;SDS011;10222;50.848;4.336;2023-01-20T04:32:10;15.53;;;6.40;;
20122;SDS011;10222;50.848;4.336;2023-01-20T04:34:37;17.47;;;6.40;;
20122;SDS011;10222;50.848;4.336;2023-01-20T04:37:03;19.37;;;7.43;;
20122;SDS011;10222;50.848;4.336;2023-01-20T04:39:32;24.13;;;7.77;;
20122;SDS011;10222;50.848;4.336;2023-01-20T04:41:58;19.17;;;7.10;;
20122;SDS011;10222;50.848;4.336;2023-01-20T04:46:56;12.67;;;6.43;;
20122;SDS011;10222;50.848;4.336;2023-01-20T04:49:26;15.33;;;6.57;;
20122;SDS011;10222;50.848;4.336;2023-01-20T04:51:52;19.90;;;7.03;;
20122;SDS011;10222;50.848;4.336;2023-01-20T04:54:19;18.40;;;7.80;;
20122;SDS011;10222;50.848;4.336;2023-01-20T04:56:49;21.13;;;7.43;;
20122;SDS011;10222;50.848;4.336;2023-01-20T04:59:15;20.47;;;8.03;;
20122;SDS011;10222;50.848;4.336;2023-01-20T05:01:42;17.23;;;7.77;;
20122;SDS011;10222;50.848;4.336;2023-01-20T05:04:08;16.83;;;6.63;;
20122;SDS011;10222;50.848;4.336;2023-01-20T05:06:34;20.80;;;7.50;;
20122;SDS011;10222;50.848;4.336;2023-01-20T05:09:01;15.30;;;6.50;;
20122;SDS011;10222;50.848;4.336;2023-01-20T05:11:31;15.93;;;7.40;;
20122;SDS011;10222;50.848;4.336;2023-01-20T05:13:57;19.80;;;7.90;;
20122;SDS011;10222;50.848;4.336;2023-01-20T05:16:22;15.73;;;7.13;;
20122;SDS011;10222;50.848;4.336;2023-01-20T05:18:53;9.90;;;5.43;;
20122;SDS011;10222;50.848;4.336;2023-01-20T05:21:19;16.53;;;6.73;;
20122;SDS011;10222;50.848;4.336;2023-01-20T05:23:46;15.47;;;7.53;;
20122;SDS011;10222;50.848;4.336;2023-01-20T05:26:12;16.23;;;6.27;;
20122;SDS011;10222;50.848;4.336;2023-01-20T05:28:41;17.83;;;8.50;;
20122;SDS011;10222;50.848;4.336;2023-01-20T05:31:08;16.90;;;7.00;;
20122;SDS011;10222;50.848;4.336;2023-01-20T05:33:34;18.83;;;8.17;;
20122;SDS011;10222;50.848;4.336;2023-01-20T05:36:05;17.83;;;7.83;;
20122;SDS011;10222;50.848;4.336;2023-01-20T05:38:31;18.10;;;7.80;;
20122;SDS011;10222;50.848;4.336;2023-01-20T05:40:59;17.63;;;7.27;;
20122;SDS011;10222;50.848;4.336;2023-01-20T05:43:26;17.53;;;7.07;;
20122;SDS011;10222;50.848;4.336;2023-01-20T05:45:52;19.47;;;7.03;;
20122;SDS011;10222;50.848;4.336;2023-01-20T05:48:18;14.13;;;7.13;;
20122;SDS011;10222;50.848;4.336;2023-01-20T05:50:45;18.60;;;7.87;;
20122;SDS011;10222;50.848;4.336;2023-01-20T05:53:11;22.37;;;8.57;;
20122;SDS011;10222;50.848;4.336;2023-01-20T05:55:37;16.13;;;6.63;;
20122;SDS011;10222;50.848;4.336;2023-01-20T05:58:03;21.93;;;7.70;;
20122;SDS011;10222;50.848;4.336;2023-01-20T06:00:29;14.27;;;5.97;;
20122;SDS011;10222;50.848;4.336;2023-01-20T06:02:57;16.90;;;6.73;;
20122;SDS011;10222;50.848;4.336;2023-01-20T06:05:26;14.93;;;7.77;;
20122;SDS011;10222;50.848;4.336;2023-01-20T06:07:55;13.47;;;6.60;;
20122;SDS011;10222;50.848;4.336;2023-01-20T06:10:21;14.70;;;5.63;;
20122;SDS011;10222;50.848;4.336;2023-01-20T06:12:54;17.07;;;7.30;;
20122;SDS011;10222;50.848;4.336;2023-01-20T06:15:21;13.87;;;6.37;;
20122;SDS011;10222;50.848;4.336;2023-01-20T06:17:49;12.67;;;6.33;;
20122;SDS011;10222;50.848;4.336;2023-01-20T06:20:15;14.07;;;6.17;;
20122;SDS011;10222;50.848;4.336;2023-01-20T06:22:42;16.10;;;6.10;;
20122;SDS011;10222;50.848;4.336;2023-01-20T06:25:08;18.87;;;6.90;;
20122;SDS011;10222;50.848;4.336;2023-01-20T06:27:35;14.53;;;7.10;;
20122;SDS011;10222;50.848;4.336;2023-01-20T06:30:03;15.47;;;6.47;;
20122;SDS011;10222;50.848;4.336;2023-01-20T06:32:30;13.20;;;6.40;;
20122;SDS011;10222;50.848;4.336;2023-01-20T06:34:58;16.43;;;6.60;;
20122;SDS011;10222;50.848;4.336;2023-01-20T06:37:25;13.43;;;6.90;;
20122;SDS011;10222;50.848;4.336;2023-01-20T06:39:51;13.53;;;6.40;;
20122;SDS011;10222;50.848;4.336;2023-01-20T06:42:17;13.23;;;6.93;;
20122;SDS011;10222;50.848;4.336;2023-01-20T06:44:43;15.17;;;6.83;;
20122;SDS011;10222;50.848;4.336;2023-01-20T06:47:10;15.17;;;6.80;;
20122;SDS011;10222;50.848;4.336;2023-01-20T06:49:36;14.40;;;7.57;;
20122;SDS011;10222;50.848;4.336;2023-01-20T06:52:04;17.30;;;7.37;;
20122;SDS011;10222;50.848;4.336;2023-01-20T06:54:36;16.63;;;7.67;;
20122;SDS011;10222;50.848;4.336;2023-01-20T06:57:02;16.53;;;6.87;;
20122;SDS011;10222;50.848;4.336;2023-01-20T06:59:28;18.60;;;8.77;;
20122;SDS011;10222;50.848;4.336;2023-01-20T07:01:55;23.87;;;8.17;;
20122;SDS011;10222;50.848;4.336;2023-01-20T07:04:22;15.03;;;6.80;;
20122;SDS011;10222;50.848;4.336;2023-01-20T07:06:48;19.23;;;8.33;;
20122;SDS011;10222;50.848;4.336;2023-01-20T07:09:15;16.97;;;7.10;;
20122;SDS011;10222;50.848;4.336;2023-01-20T07:11:43;13.37;;;7.03;;
20122;SDS011;10222;50.848;4.336;2023-01-20T07:14:10;15.47;;;6.20;;
20122;SDS011;10222;50.848;4.336;2023-01-20T07:16:37;15.10;;;7.00;;
20122;SDS011;10222;50.848;4.336;2023-01-20T07:19:04;22.87;;;7.20;;
20122;SDS011;10222;50.848;4.336;2023-01-20T07:21:34;14.67;;;6.90;;
20122;SDS011;10222;50.848;4.336;2023-01-20T07:24:01;19.13;;;7.23;;
20122;SDS011;10222;50.848;4.336;2023-01-20T07:26:33;18.93;;;7.33;;
20122;SDS011;10222;50.848;4.336;2023-01-20T07:29:01;20.37;;;7.70;;
20122;SDS011;10222;50.848;4.336;2023-01-20T07:31:27;15.90;;;6.63;;
20122;SDS011;10222;50.848;4.336;2023-01-20T07:33:56;14.20;;;5.80;;
20122;SDS011;10222;50.848;4.336;2023-01-20T07:36:23;14.80;;;6.60;;
20122;SDS011;10222;50.848;4.336;2023-01-20T07:38:49;14.23;;;6.33;;
20122;SDS011;10222;50.848;4.336;2023-01-20T07:41:17;13.73;;;6.67;;
20122;SDS011;10222;50.848;4.336;2023-01-20T07:43:49;14.33;;;5.80;;
20122;SDS011;10222;50.848;4.336;2023-01-20T07:46:15;14.60;;;6.07;;
20122;SDS011;10222;50.848;4.336;2023-01-20T07:48:43;15.97;;;6.10;;
20122;SDS011;10222;50.848;4.336;2023-01-20T07:51:11;10.70;;;5.43;;
20122;SDS011;10222;50.848;4.336;2023-01-20T07:53:38;11.77;;;6.20;;
20122;SDS011;10222;50.848;4.336;2023-01-20T07:56:08;12.97;;;6.47;;
20122;SDS011;10222;50.848;4.336;2023-01-20T07:58:37;11.77;;;5.53;;
20122;SDS011;10222;50.848;4.336;2023-01-20T08:01:10;12.43;;;5.70;;
20122;SDS011;10222;50.848;4.336;2023-01-20T08:03:39;13.30;;;5.50;;
20122;SDS011;10222;50.848;4.336;2023-01-20T08:06:08;13.07;;;7.00;;
20122;SDS011;10222;50.848;4.336;2023-01-20T08:08:36;15.83;;;7.00;;
20122;SDS011;10222;50.848;4.336;2023-01-20T08:11:09;16.73;;;7.00;;
20122;SDS011;10222;50.848;4.336;2023-01-20T08:13:37;12.77;;;5.77;;
20122;SDS011;10222;50.848;4.336;2023-01-20T08:16:04;14.73;;;6.33;;
20122;SDS011;10222;50.848;4.336;2023-01-20T08:18:32;13.77;;;6.77;;
20122;SDS011;10222;50.848;4.336;2023-01-20T08:21:00;13.80;;;5.57;;
20122;SDS011;10222;50.848;4.336;2023-01-20T08:23:30;10.13;;;6.00;;
20122;SDS011;10222;50.848;4.336;2023-01-20T08:25:57;10.57;;;5.83;;
20122;SDS011;10222;50.848;4.336;2023-01-20T08:28:26;15.67;;;6.67;;
20122;SDS011;10222;50.848;4.336;2023-01-20T08:30:54;20.53;;;7.70;;
20122;SDS011;10222;50.848;4.336;2023-01-20T08:33:21;19.77;;;7.27;;
20122;SDS011;10222;50.848;4.336;2023-01-20T08:38:16;13.60;;;6.63;;
20122;SDS011;10222;50.848;4.336;2023-01-20T08:40:43;11.07;;;5.33;;
20122;SDS011;10222;50.848;4.336;2023-01-20T08:43:12;12.00;;;6.00;;
20122;SDS011;10222;50.848;4.336;2023-01-20T08:45:39;10.70;;;5.13;;
20122;SDS011;10222;50.848;4.336;2023-01-20T08:48:09;11.00;;;5.70;;
20122;SDS011;10222;50.848;4.336;2023-01-20T08:50:37;10.93;;;5.67;;
20122;SDS011;10222;50.848;4.336;2023-01-20T08:53:05;13.00;;;5.87;;
20122;SDS011;10222;50.848;4.336;2023-01-20T08:55:32;14.47;;;6.87;;
20122;SDS011;10222;50.848;4.336;2023-01-20T08:57:59;10.77;;;5.40;;
20122;SDS011;10222;50.848;4.336;2023-01-20T09:00:25;14.73;;;6.00;;
20122;SDS011;10222;50.848;4.336;2023-01-20T09:02:51;10.83;;;5.00;;
20122;SDS011;10222;50.848;4.336;2023-01-20T09:05:17;10.33;;;5.07;;
20122;SDS011;10222;50.848;4.336;2023-01-20T09:07:47;9.13;;;5.07;;
20122;SDS011;10222;50.848;4.336;2023-01-20T09:10:13;13.20;;;6.30;;
20122;SDS011;10222;50.848;4.336;2023-01-20T09:12:39;9.53;;;4.90;;
20122;SDS011;10222;50.848;4.336;2023-01-20T09:15:05;11.60;;;6.10;;
20122;SDS011;10222;50.848;4.336;2023-01-20T09:17:33;13.77;;;5.70;;
20122;SDS011;10222;50.848;4.336;2023-01-20T09:19:59;11.33;;;5.07;;
20122;SDS011;10222;50.848;4.336;2023-01-20T09:22:26;12.10;;;5.33;;
20122;SDS011;10222;50.848;4.336;2023-01-20T09:24:52;15.90;;;6.70;;
20122;SDS011;10222;50.848;4.336;2023-01-20T09:27:20;9.83;;;5.73;;
20122;SDS011;10222;50.848;4.336;2023-01-20T09:29:48;10.70;;;5.17;;
20122;SDS011;10222;50.848;4.336;2023-01-20T09:32:15;15.03;;;6.03;;
20122;SDS011;10222;50.848;4.336;2023-01-20T09:34:43;11.97;;;4.73;;
20122;SDS011;10222;50.848;4.336;2023-01-20T09:37:10;11.10;;;5.47;;
20122;SDS011;10222;50.848;4.336;2023-01-20T09:39:56;10.07;;;5.50;;
20122;SDS011;10222;50.848;4.336;2023-01-20T09:45:27;15.53;;;5.13;;
20122;SDS011;10222;50.848;4.336;2023-01-20T09:47:59;8.27;;;4.90;;
20122;SDS011;10222;50.848;4.336;2023-01-20T09:50:38;9.40;;;4.27;;
20122;SDS011;10222;50.848;4.336;2023-01-20T09:56:27;9.50;;;4.00;;
20122;SDS011;10222;50.848;4.336;2023-01-20T09:58:59;10.07;;;4.57;;
20122;SDS011;10222;50.848;4.336;2023-01-20T10:06:56;12.13;;;4.77;;
20122;SDS011;10222;50.848;4.336;2023-01-20T10:12:24;11.10;;;4.70;;
20122;SDS011;10222;50.848;4.336;2023-01-20T10:14:49;10.13;;;4.77;;
20122;SDS011;10222;50.848;4.336;2023-01-20T10:17:30;9.40;;;4.50;;
20122;SDS011;10222;50.848;4.336;2023-01-20T10:20:02;7.60;;;4.43;;
20122;SDS011;10222;50.848;4.336;2023-01-20T10:22:39;13.33;;;4.73;;
20122;SDS011;10222;50.848;4.336;2023-01-20T10:27:35;9.77;;;3.97;;
20122;SDS011;10222;50.848;4.336;2023-01-20T10:32:41;9.33;;;5.10;;
20122;SDS011;10222;50.848;4.336;2023-01-20T10:35:14;7.97;;;4.63;;
20122;SDS011;10222;50.848;4.336;2023-01-20T10:37:43;10.83;;;5.13;;
20122;SDS011;10222;50.848;4.336;2023-01-20T10:43:00;11.03;;;4.53;;
20122;SDS011;10222;50.848;4.336;2023-01-20T10:58:45;11.20;;;5.10;;
20122;SDS011;10222;50.848;4.336;2023-01-20T11:01:16;7.77;;;4.37;;
20122;SDS011;10222;50.848;4.336;2023-01-20T11:03:45;9.13;;;5.20;;
20122;SDS011;10222;50.848;4.336;2023-01-20T11:06:20;10.80;;;5.40;;
20122;SDS011;10222;50.848;4.336;2023-01-20T11:08:46;14.63;;;5.43;;
20122;SDS011;10222;50.848;4.336;2023-01-20T11:11:17;8.43;;;4.13;;
20122;SDS011;10222;50.848;4.336;2023-01-20T11:13:45;8.33;;;4.33;;
20122;SDS011;10222;50.848;4.336;2023-01-20T11:16:18;8.40;;;3.77;;
20122;SDS011;10222;50.848;4.336;2023-01-20T11:18:57;18.60;;;5.13;;
20122;SDS011;10222;50.848;4.336;2023-01-20T11:21:30;9.50;;;4.80;;
20122;SDS011;10222;50.848;4.336;2023-01-20T11:23:58;13.87;;;5.10;;
20122;SDS011;10222;50.848;4.336;2023-01-20T11:26:32;10.63;;;3.97;;
20122;SDS011;10222;50.848;4.336;2023-01-20T11:29:01;11.13;;;4.40;;
20122;SDS011;10222;50.848;4.336;2023-01-20T11:34:01;6.53;;;4.33;;
20122;SDS011;10222;50.848;4.336;2023-01-20T11:36:29;7.23;;;4.37;;
20122;SDS011;10222;50.848;4.336;2023-01-20T11:38:58;6.67;;;4.00;;
20122;SDS011;10222;50.848;4.336;2023-01-20T11:41:25;8.23;;;4.43;;
20122;SDS011;10222;50.848;4.336;2023-01-20T11:43:53;18.87;;;4.77;;
20122;SDS011;10222;50.848;4.336;2023-01-20T11:46:31;8.13;;;3.73;;
20122;SDS011;10222;50.848;4.336;2023-01-20T11:49:11;11.63;;;4.00;;
20122;SDS011;10222;50.848;4.336;2023-01-20T11:51:54;6.57;;;3.33;;
20122;SDS011;10222;50.848;4.336;2023-01-20T11:54:21;7.87;;;4.87;;
20122;SDS011;10222;50.848;4.336;2023-01-20T11:56:49;10.23;;;4.03;;
20122;SDS011;10222;50.848;4.336;2023-01-20T11:59:24;9.60;;;4.83;;
20122;SDS011;10222;50.848;4.336;2023-01-20T12:01:53;7.57;;;3.40;;
20122;SDS011;10222;50.848;4.336;2023-01-20T12:09:45;8.10;;;3.70;;
20122;SDS011;10222;50.848;4.336;2023-01-20T12:12:19;6.00;;;3.30;;
20122;SDS011;10222;50.848;4.336;2023-01-20T12:17:32;9.50;;;3.33;;
20122;SDS011;10222;50.848;4.336;2023-01-20T12:20:08;11.10;;;4.20;;
20122;SDS011;10222;50.848;4.336;2023-01-20T12:25:23;6.60;;;3.30;;
20122;SDS011;10222;50.848;4.336;2023-01-20T12:27:52;9.77;;;4.60;;
20122;SDS011;10222;50.848;4.336;2023-01-20T12:32:47;11.57;;;3.80;;
20122;SDS011;10222;50.848;4.336;2023-01-20T12:35:13;8.77;;;3.63;;
20122;SDS011;10222;50.848;4.336;2023-01-20T12:37:45;4.93;;;2.97;;
20122;SDS011;10222;50.848;4.336;2023-01-20T12:53:22;11.30;;;2.80;;
20122;SDS011;10222;50.848;4.336;2023-01-20T13:04:24;5.63;;;2.97;;
20122;SDS011;10222;50.848;4.336;2023-01-20T13:09:39;7.83;;;3.07;;
20122;SDS011;10222;50.848;4.336;2023-01-20T13:15:27;3.43;;;2.30;;
20122;SDS011;10222;50.848;4.336;2023-01-20T13:17:37;6.23;;;3.07;;
20122;SDS011;10222;50.848;4.336;2023-01-20T13:20:20;5.60;;;2.73;;
20122;SDS011;10222;50.848;4.336;2023-01-20T13:22:48;5.13;;;2.67;;
20122;SDS011;10222;50.848;4.336;2023-01-20T13:25:15;6.60;;;2.67;;
20122;SDS011;10222;50.848;4.336;2023-01-20T13:27:43;13.90;;;3.57;;
20122;SDS011;10222;50.848;4.336;2023-01-20T13:33:02;7.40;;;3.30;;
20122;SDS011;10222;50.848;4.336;2023-01-20T13:37:57;4.37;;;2.37;;
20122;SDS011;10222;50.848;4.336;2023-01-20T13:45:43;11.13;;;2.77;;
20122;SDS011;10222;50.848;4.336;2023-01-20T13:50:41;7.00;;;3.20;;
20122;SDS011;10222;50.848;4.336;2023-01-20T13:53:13;8.67;;;3.10;;
20122;SDS011;10222;50.848;4.336;2023-01-20T14:00:55;5.40;;;2.47;;
20122;SDS011;10222;50.848;4.336;2023-01-20T14:08:26;10.20;;;2.53;;
20122;SDS011;10222;50.848;4.336;2023-01-20T14:11:07;6.00;;;2.37;;
20122;SDS011;10222;50.848;4.336;2023-01-20T14:13:35;3.10;;;2.27;;
20122;SDS011;10222;50.848;4.336;2023-01-20T14:16:01;4.47;;;2.57;;
20122;SDS011;10222;50.848;4.336;2023-01-20T14:23:27;4.53;;;2.27;;
20122;SDS011;10222;50.848;4.336;2023-01-20T14:25:58;3.53;;;2.00;;
20122;SDS011;10222;50.848;4.336;2023-01-20T14:33:46;4.73;;;1.70;;
20122;SDS011;10222;50.848;4.336;2023-01-20T14:36:17;4.80;;;2.17;;
20122;SDS011;10222;50.848;4.336;2023-01-20T14:38:44;12.87;;;2.63;;
20122;SDS011;10222;50.848;4.336;2023-01-20T14:41:23;5.70;;;1.83;;
20122;SDS011;10222;50.848;4.336;2023-01-20T14:43:50;2.83;;;1.30;;
20122;SDS011;10222;50.848;4.336;2023-01-20T14:46:18;2.60;;;1.40;;
20122;SDS011;10222;50.848;4.336;2023-01-20T14:48:44;2.00;;;1.50;;
20122;SDS011;10222;50.848;4.336;2023-01-20T14:51:10;2.60;;;1.53;;
20122;SDS011;10222;50.848;4.336;2023-01-20T14:53:39;1.80;;;1.27;;
20122;SDS011;10222;50.848;4.336;2023-01-20T14:56:22;0.83;;;0.83;;
20122;SDS011;10222;50.848;4.336;2023-01-20T14:58:49;1.57;;;0.90;;
20122;SDS011;10222;50.848;4.336;2023-01-20T15:01:23;3.17;;;1.33;;
20122;SDS011;10222;50.848;4.336;2023-01-20T15:03:55;2.90;;;1.20;;
20122;SDS011;10222;50.848;4.336;2023-01-20T15:06:24;1.13;;;0.90;;
20122;SDS011;10222;50.848;4.336;2023-01-20T15:08:54;4.00;;;1.27;;
20122;SDS011;10222;50.848;4.336;2023-01-20T15:11:23;4.47;;;1.63;;
20122;SDS011;10222;50.848;4.336;2023-01-20T15:16:31;4.67;;;1.77;;
20122;SDS011;10222;50.848;4.336;2023-01-20T15:19:47;4.20;;;1.20;;
20122;SDS011;10222;50.848;4.336;2023-01-20T15:24:27;1.17;;;0.90;;
20122;SDS011;10222;50.848;4.336;2023-01-20T15:26:57;1.03;;;0.93;;
20122;SDS011;10222;50.848;4.336;2023-01-20T15:29:32;2.30;;;1.43;;
20122;SDS011;10222;50.848;4.336;2023-01-20T15:31:59;3.37;;;1.60;;
20122;SDS011;10222;50.848;4.336;2023-01-20T15:34:28;4.40;;;1.63;;
20122;SDS011;10222;50.848;4.336;2023-01-20T15:36:55;7.87;;;1.60;;
20122;SDS011;10222;50.848;4.336;2023-01-20T15:39:25;2.37;;;1.50;;
20122;SDS011;10222;50.848;4.336;2023-01-20T15:41:56;3.73;;;1.53;;
20122;SDS011;10222;50.848;4.336;2023-01-20T15:44:28;3.03;;;1.50;;
20122;SDS011;10222;50.848;4.336;2023-01-20T15:46:54;2.33;;;1.43;;
20122;SDS011;10222;50.848;4.336;2023-01-20T15:49:22;9.93;;;1.83;;
20122;SDS011;10222;50.848;4.336;2023-01-20T15:51:52;6.77;;;1.97;;
20122;SDS011;10222;50.848;4.336;2023-01-20T15:54:19;5.40;;;2.00;;
20122;SDS011;10222;50.848;4.336;2023-01-20T15:56:45;5.63;;;1.63;;
20122;SDS011;10222;50.848;4.336;2023-01-20T15:59:12;3.33;;;1.90;;
20122;SDS011;10222;50.848;4.336;2023-01-20T16:01:38;2.30;;;1.50;;
20122;SDS011;10222;50.848;4.336;2023-01-20T16:04:04;5.83;;;2.47;;
20122;SDS011;10222;50.848;4.336;2023-01-20T16:06:31;2.60;;;1.63;;
20122;SDS011;10222;50.848;4.336;2023-01-20T16:08:58;4.23;;;1.10;;
20122;SDS011;10222;50.848;4.336;2023-01-20T16:11:25;5.40;;;2.07;;
20122;SDS011;10222;50.848;4.336;2023-01-20T16:13:51;2.53;;;1.60;;
20122;SDS011;10222;50.848;4.336;2023-01-20T16:16:18;11.83;;;2.97;;
20122;SDS011;10222;50.848;4.336;2023-01-20T16:18:45;8.20;;;1.70;;
20122;SDS011;10222;50.848;4.336;2023-01-20T16:21:12;4.20;;;1.40;;
20122;SDS011;10222;50.848;4.336;2023-01-20T16:23:38;6.47;;;1.70;;
20122;SDS011;10222;50.848;4.336;2023-01-20T16:26:12;3.67;;;1.67;;
20122;SDS011;10222;50.848;4.336;2023-01-20T16:28:39;5.50;;;2.17;;
20122;SDS011;10222;50.848;4.336;2023-01-20T16:31:05;7.63;;;2.40;;
20122;SDS011;10222;50.848;4.336;2023-01-20T16:33:31;3.00;;;1.47;;
20122;SDS011;10222;50.848;4.336;2023-01-20T16:35:57;6.83;;;1.73;;
20122;SDS011;10222;50.848;4.336;2023-01-20T16:38:23;5.77;;;1.90;;
20122;SDS011;10222;50.848;4.336;2023-01-20T16:40:50;5.77;;;2.73;;
20122;SDS011;10222;50.848;4.336;2023-01-20T16:43:18;7.90;;;2.33;;
20122;SDS011;10222;50.848;4.336;2023-01-20T16:45:47;7.37;;;1.63;;
20122;SDS011;10222;50.848;4.336;2023-01-20T16:48:18;3.87;;;1.67;;
20122;SDS011;10222;50.848;4.336;2023-01-20T16:50:44;4.60;;;1.77;;
20122;SDS011;10222;50.848;4.336;2023-01-20T16:53:11;3.37;;;1.10;;
20122;SDS011;10222;50.848;4.336;2023-01-20T16:55:37;2.70;;;1.17;;
20122;SDS011;10222;50.848;4.336;2023-01-20T16:58:03;1.57;;;0.93;;
20122;SDS011;10222;50.848;4.336;2023-01-20T17:00:30;6.37;;;1.10;;
20122;SDS011;10222;50.848;4.336;2023-01-20T17:02:56;6.07;;;1.40;;
20122;SDS011;10222;50.848;4.336;2023-01-20T17:05:22;1.27;;;0.97;;
20122;SDS011;10222;50.848;4.336;2023-01-20T17:07:49;2.33;;;1.10;;
20122;SDS011;10222;50.848;4.336;2023-01-20T17:10:16;2.80;;;1.20;;
20122;SDS011;10222;50.848;4.336;2023-01-20T17:12:42;3.47;;;1.37;;
20122;SDS011;10222;50.848;4.336;2023-01-20T17:15:08;3.27;;;1.20;;
20122;SDS011;10222;50.848;4.336;2023-01-20T17:17:34;3.13;;;1.30;;
20122;SDS011;10222;50.848;4.336;2023-01-20T17:20:03;4.17;;;1.63;;
20122;SDS011;10222;50.848;4.336;2023-01-20T17:22:29;7.10;;;2.00;;
20122;SDS011;10222;50.848;4.336;2023-01-20T17:24:54;3.07;;;1.53;;
20122;SDS011;10222;50.848;4.336;2023-01-20T17:27:21;5.60;;;1.60;;
20122;SDS011;10222;50.848;4.336;2023-01-20T17:29:47;7.87;;;1.57;;
20122;SDS011;10222;50.848;4.336;2023-01-20T17:32:13;2.00;;;1.40;;
20122;SDS011;10222;50.848;4.336;2023-01-20T17:34:40;2.30;;;1.00;;
20122;SDS011;10222;50.848;4.336;2023-01-20T17:37:06;1.33;;;0.77;;
20122;SDS011;10222;50.848;4.336;2023-01-20T17:39:31;5.23;;;2.40;;
20122;SDS011;10222;50.848;4.336;2023-01-20T17:41:57;2.13;;;1.63;;
20122;SDS011;10222;50.848;4.336;2023-01-20T17:44:23;3.07;;;1.77;;